sensor_id;sensor_type;location;lat;lon;timestamp;P1;durP1;ratioP1;P2;durP2;ratioP2
462;SDS011;218;51.902;9.542;2023-03-01T00:01:17;17.35;;;14.20;;
462;SDS011;218;51.902;9.542;2023-03-01T00:03:46;17.08;;;14.50;;
462;SDS011;218;51.902;9.542;2023-03-01T00:06:13;16.80;;;14.20;;
462;SDS011;218;51.902;9.542;2023-03-01T00:08:41;17.02;;;13.45;;
462;SDS011;218;51.902;9.542;2023-03-01T00:11:10;17.35;;;13.95;;
462;SDS011;218;51.902;9.542;2023-03-01T00:13:44;16.88;;;13.18;;
462;SDS011;218;51.902;9.542;2023-03-01T00:16:13;17.65;;;13.18;;
462;SDS011;218;51.902;9.542;2023-03-01T00:18:41;15.07;;;11.15;;
462;SDS011;218;51.902;9.542;2023-03-01T00:21:08;17.52;;;13.73;;
462;SDS011;218;51.902;9.542;2023-03-01T00:23:35;14.40;;;11.68;;
462;SDS011;218;51.902;9.542;2023-03-01T00:26:06;12.55;;;10.60;;
462;SDS011;218;51.902;9.542;2023-03-01T00:28:34;10.73;;;9.23;;
462;SDS011;218;51.902;9.542;2023-03-01T00:31:02;12.63;;;10.82;;
462;SDS011;218;51.902;9.542;2023-03-01T00:33:30;11.80;;;10.23;;
462;SDS011;218;51.902;9.542;2023-03-01T00:35:57;13.48;;;10.52;;
462;SDS011;218;51.902;9.542;2023-03-01T00:38:24;9.50;;;8.55;;
462;SDS011;218;51.902;9.542;2023-03-01T00:40:51;11.20;;;8.63;;
462;SDS011;218;51.902;9.542;2023-03-01T00:43:20;9.70;;;8.30;;
462;SDS011;218;51.902;9.542;2023-03-01T00:45:47;9.48;;;8.57;;
462;SDS011;218;51.902;9.542;2023-03-01T00:48:14;11.60;;;9.02;;
462;SDS011;218;51.902;9.542;2023-03-01T00:50:41;13.05;;;10.10;;
462;SDS011;218;51.902;9.542;2023-03-01T00:53:07;16.00;;;11.60;;
462;SDS011;218;51.902;9.542;2023-03-01T00:55:35;12.77;;;10.38;;
462;SDS011;218;51.902;9.542;2023-03-01T00:58:02;21.08;;;12.73;;
462;SDS011;218;51.902;9.542;2023-03-01T01:00:30;27.88;;;18.05;;
462;SDS011;218;51.902;9.542;2023-03-01T01:02:57;33.10;;;20.17;;
462;SDS011;218;51.902;9.542;2023-03-01T01:05:24;37.15;;;21.88;;
462;SDS011;218;51.902;9.542;2023-03-01T01:07:51;34.25;;;21.70;;
462;SDS011;218;51.902;9.542;2023-03-01T01:10:18;31.95;;;22.88;;
462;SDS011;218;51.902;9.542;2023-03-01T01:12:45;38.58;;;24.33;;
462;SDS011;218;51.902;9.542;2023-03-01T01:15:12;31.33;;;22.17;;
462;SDS011;218;51.902;9.542;2023-03-01T01:17:43;32.15;;;20.25;;
462;SDS011;218;51.902;9.542;2023-03-01T01:20:10;32.60;;;19.15;;
462;SDS011;218;51.902;9.542;2023-03-01T01:22:38;28.10;;;18.33;;
462;SDS011;218;51.902;9.542;2023-03-01T01:25:05;21.42;;;16.13;;
462;SDS011;218;51.902;9.542;2023-03-01T01:27:32;25.65;;;15.57;;
462;SDS011;218;51.902;9.542;2023-03-01T01:29:59;21.08;;;15.20;;
462;SDS011;218;51.902;9.542;2023-03-01T01:32:26;20.23;;;13.65;;
462;SDS011;218;51.902;9.542;2023-03-01T01:34:54;15.32;;;11.68;;
462;SDS011;218;51.902;9.542;2023-03-01T01:37:21;13.07;;;10.90;;
462;SDS011;218;51.902;9.542;2023-03-01T01:39:48;14.90;;;11.25;;
462;SDS011;218;51.902;9.542;2023-03-01T01:42:15;13.23;;;11.57;;
462;SDS011;218;51.902;9.542;2023-03-01T01:44:44;14.20;;;11.15;;
462;SDS011;218;51.902;9.542;2023-03-01T01:47:14;13.05;;;10.25;;
462;SDS011;218;51.902;9.542;2023-03-01T01:49:44;13.07;;;10.65;;
462;SDS011;218;51.902;9.542;2023-03-01T01:52:17;11.50;;;9.77;;
462;SDS011;218;51.902;9.542;2023-03-01T01:54:50;11.27;;;10.07;;
462;SDS011;218;51.902;9.542;2023-03-01T01:57:22;10.90;;;9.02;;
462;SDS011;218;51.902;9.542;2023-03-01T01:59:54;10.18;;;9.10;;
462;SDS011;218;51.902;9.542;2023-03-01T02:02:24;14.82;;;11.02;;
462;SDS011;218;51.902;9.542;2023-03-01T02:04:52;13.30;;;9.05;;
462;SDS011;218;51.902;9.542;2023-03-01T02:07:30;12.18;;;10.75;;
462;SDS011;218;51.902;9.542;2023-03-01T02:09:57;11.32;;;9.43;;
462;SDS011;218;51.902;9.542;2023-03-01T02:12:25;17.48;;;9.75;;
462;SDS011;218;51.902;9.542;2023-03-01T02:14:52;11.43;;;9.80;;
462;SDS011;218;51.902;9.542;2023-03-01T02:17:19;14.95;;;10.48;;
462;SDS011;218;51.902;9.542;2023-03-01T02:19:51;14.02;;;10.75;;
462;SDS011;218;51.902;9.542;2023-03-01T02:22:33;26.58;;;14.35;;
462;SDS011;218;51.902;9.542;2023-03-01T02:25:12;17.05;;;13.05;;
462;SDS011;218;51.902;9.542;2023-03-01T02:27:54;11.55;;;10.48;;
462;SDS011;218;51.902;9.542;2023-03-01T02:30:27;21.55;;;14.02;;
462;SDS011;218;51.902;9.542;2023-03-01T02:32:55;17.95;;;12.50;;
462;SDS011;218;51.902;9.542;2023-03-01T02:35:27;13.55;;;11.23;;
462;SDS011;218;51.902;9.542;2023-03-01T02:37:56;13.63;;;9.90;;
462;SDS011;218;51.902;9.542;2023-03-01T02:40:25;17.05;;;11.70;;
462;SDS011;218;51.902;9.542;2023-03-01T02:42:56;16.65;;;11.23;;
462;SDS011;218;51.902;9.542;2023-03-01T02:45:24;15.27;;;11.20;;
462;SDS011;218;51.902;9.542;2023-03-01T02:47:53;13.77;;;10.52;;
462;SDS011;218;51.902;9.542;2023-03-01T02:50:27;14.07;;;10.77;;
462;SDS011;218;51.902;9.542;2023-03-01T02:53:12;14.80;;;10.60;;
462;SDS011;218;51.902;9.542;2023-03-01T02:55:45;10.68;;;9.00;;
462;SDS011;218;51.902;9.542;2023-03-01T02:58:12;9.40;;;8.50;;
462;SDS011;218;51.902;9.542;2023-03-01T03:00:42;14.52;;;9.80;;
462;SDS011;218;51.902;9.542;2023-03-01T03:03:10;14.07;;;12.10;;
462;SDS011;218;51.902;9.542;2023-03-01T03:05:39;11.57;;;10.38;;
462;SDS011;218;51.902;9.542;2023-03-01T03:08:06;11.20;;;9.63;;
462;SDS011;218;51.902;9.542;2023-03-01T03:10:34;12.68;;;11.00;;
462;SDS011;218;51.902;9.542;2023-03-01T03:13:05;13.18;;;9.68;;
462;SDS011;218;51.902;9.542;2023-03-01T03:15:33;13.63;;;11.27;;
462;SDS011;218;51.902;9.542;2023-03-01T03:18:03;12.45;;;8.98;;
462;SDS011;218;51.902;9.542;2023-03-01T03:20:32;15.75;;;12.80;;
462;SDS011;218;51.902;9.542;2023-03-01T03:22:59;17.25;;;11.95;;
462;SDS011;218;51.902;9.542;2023-03-01T03:25:27;14.20;;;11.35;;
462;SDS011;218;51.902;9.542;2023-03-01T03:27:55;14.15;;;11.40;;
462;SDS011;218;51.902;9.542;2023-03-01T03:30:23;14.50;;;10.73;;
462;SDS011;218;51.902;9.542;2023-03-01T03:32:52;12.60;;;9.90;;
462;SDS011;218;51.902;9.542;2023-03-01T03:35:21;11.20;;;9.60;;
462;SDS011;218;51.902;9.542;2023-03-01T03:37:50;14.13;;;10.23;;
462;SDS011;218;51.902;9.542;2023-03-01T03:40:31;13.88;;;10.63;;
462;SDS011;218;51.902;9.542;2023-03-01T03:42:59;13.60;;;12.00;;
462;SDS011;218;51.902;9.542;2023-03-01T03:45:26;13.73;;;11.15;;
462;SDS011;218;51.902;9.542;2023-03-01T03:47:53;16.95;;;11.07;;
462;SDS011;218;51.902;9.542;2023-03-01T03:50:21;12.85;;;11.55;;
462;SDS011;218;51.902;9.542;2023-03-01T03:52:48;11.55;;;9.77;;
462;SDS011;218;51.902;9.542;2023-03-01T03:55:15;16.48;;;11.68;;
462;SDS011;218;51.902;9.542;2023-03-01T03:57:45;12.90;;;11.70;;
462;SDS011;218;51.902;9.542;2023-03-01T04:00:17;16.38;;;10.60;;
462;SDS011;218;51.902;9.542;2023-03-01T04:02:45;12.30;;;10.85;;
462;SDS011;218;51.902;9.542;2023-03-01T04:05:14;14.13;;;12.02;;
462;SDS011;218;51.902;9.542;2023-03-01T04:07:44;14.65;;;12.35;;
462;SDS011;218;51.902;9.542;2023-03-01T04:10:12;18.05;;;13.68;;
462;SDS011;218;51.902;9.542;2023-03-01T04:12:41;13.23;;;11.25;;
462;SDS011;218;51.902;9.542;2023-03-01T04:15:09;13.50;;;11.70;;
462;SDS011;218;51.902;9.542;2023-03-01T04:17:39;18.60;;;14.65;;
462;SDS011;218;51.902;9.542;2023-03-01T04:20:07;18.73;;;13.25;;
462;SDS011;218;51.902;9.542;2023-03-01T04:22:36;14.88;;;11.55;;
462;SDS011;218;51.902;9.542;2023-03-01T04:25:04;14.80;;;11.85;;
462;SDS011;218;51.902;9.542;2023-03-01T04:27:32;13.57;;;12.18;;
462;SDS011;218;51.902;9.542;2023-03-01T04:29:59;14.35;;;10.90;;
462;SDS011;218;51.902;9.542;2023-03-01T04:32:26;14.65;;;10.05;;
462;SDS011;218;51.902;9.542;2023-03-01T04:34:53;12.45;;;10.73;;
462;SDS011;218;51.902;9.542;2023-03-01T04:37:20;13.35;;;9.40;;
462;SDS011;218;51.902;9.542;2023-03-01T04:39:49;10.43;;;9.50;;
462;SDS011;218;51.902;9.542;2023-03-01T04:42:17;9.93;;;8.88;;
462;SDS011;218;51.902;9.542;2023-03-01T04:44:44;11.18;;;8.80;;
462;SDS011;218;51.902;9.542;2023-03-01T04:47:12;9.93;;;8.88;;
462;SDS011;218;51.902;9.542;2023-03-01T04:49:39;15.13;;;9.63;;
462;SDS011;218;51.902;9.542;2023-03-01T04:52:05;10.18;;;8.80;;
462;SDS011;218;51.902;9.542;2023-03-01T04:54:32;9.68;;;8.68;;
462;SDS011;218;51.902;9.542;2023-03-01T04:57:00;9.45;;;8.45;;
462;SDS011;218;51.902;9.542;2023-03-01T04:59:29;8.82;;;7.90;;
462;SDS011;218;51.902;9.542;2023-03-01T05:01:56;10.13;;;8.65;;
462;SDS011;218;51.902;9.542;2023-03-01T05:04:25;11.70;;;9.20;;
462;SDS011;218;51.902;9.542;2023-03-01T05:06:52;10.10;;;8.32;;
462;SDS011;218;51.902;9.542;2023-03-01T05:09:19;8.32;;;7.22;;
462;SDS011;218;51.902;9.542;2023-03-01T05:11:46;10.13;;;8.23;;
462;SDS011;218;51.902;9.542;2023-03-01T05:14:13;7.85;;;7.15;;
462;SDS011;218;51.902;9.542;2023-03-01T05:16:41;9.18;;;8.38;;
462;SDS011;218;51.902;9.542;2023-03-01T05:19:08;10.82;;;7.63;;
462;SDS011;218;51.902;9.542;2023-03-01T05:21:40;10.27;;;7.57;;
462;SDS011;218;51.902;9.542;2023-03-01T05:24:21;9.65;;;7.75;;
462;SDS011;218;51.902;9.542;2023-03-01T05:26:48;10.40;;;7.97;;
462;SDS011;218;51.902;9.542;2023-03-01T05:29:16;7.82;;;7.00;;
462;SDS011;218;51.902;9.542;2023-03-01T05:31:51;9.02;;;8.13;;
462;SDS011;218;51.902;9.542;2023-03-01T05:34:22;12.27;;;9.60;;
462;SDS011;218;51.902;9.542;2023-03-01T05:36:50;15.70;;;9.60;;
462;SDS011;218;51.902;9.542;2023-03-01T05:39:18;18.00;;;10.55;;
462;SDS011;218;51.902;9.542;2023-03-01T05:41:47;25.25;;;13.43;;
462;SDS011;218;51.902;9.542;2023-03-01T05:44:14;17.98;;;12.73;;
462;SDS011;218;51.902;9.542;2023-03-01T05:46:41;13.52;;;10.75;;
462;SDS011;218;51.902;9.542;2023-03-01T05:49:09;18.02;;;11.85;;
462;SDS011;218;51.902;9.542;2023-03-01T05:51:38;13.13;;;10.40;;
462;SDS011;218;51.902;9.542;2023-03-01T05:54:05;15.00;;;9.85;;
462;SDS011;218;51.902;9.542;2023-03-01T05:56:32;13.82;;;10.23;;
462;SDS011;218;51.902;9.542;2023-03-01T05:58:59;13.43;;;9.68;;
462;SDS011;218;51.902;9.542;2023-03-01T06:01:27;13.60;;;9.68;;
462;SDS011;218;51.902;9.542;2023-03-01T06:03:54;11.25;;;10.05;;
462;SDS011;218;51.902;9.542;2023-03-01T06:06:23;9.68;;;8.73;;
462;SDS011;218;51.902;9.542;2023-03-01T06:08:50;13.57;;;9.93;;
462;SDS011;218;51.902;9.542;2023-03-01T06:11:17;9.90;;;8.90;;
462;SDS011;218;51.902;9.542;2023-03-01T06:13:44;11.40;;;9.23;;
462;SDS011;218;51.902;9.542;2023-03-01T06:16:11;15.30;;;10.00;;
462;SDS011;218;51.902;9.542;2023-03-01T06:18:39;10.85;;;9.27;;
462;SDS011;218;51.902;9.542;2023-03-01T06:21:07;11.85;;;9.18;;
462;SDS011;218;51.902;9.542;2023-03-01T06:23:36;11.95;;;9.98;;
462;SDS011;218;51.902;9.542;2023-03-01T06:26:04;13.00;;;8.80;;
462;SDS011;218;51.902;9.542;2023-03-01T06:28:32;12.23;;;9.32;;
462;SDS011;218;51.902;9.542;2023-03-01T06:30:59;10.95;;;9.52;;
462;SDS011;218;51.902;9.542;2023-03-01T06:33:26;8.98;;;8.07;;
462;SDS011;218;51.902;9.542;2023-03-01T06:35:53;9.77;;;8.25;;
462;SDS011;218;51.902;9.542;2023-03-01T06:38:21;12.45;;;7.80;;
462;SDS011;218;51.902;9.542;2023-03-01T06:40:52;9.77;;;8.50;;
462;SDS011;218;51.902;9.542;2023-03-01T06:43:21;11.35;;;8.77;;
462;SDS011;218;51.902;9.542;2023-03-01T06:45:48;10.80;;;8.70;;
462;SDS011;218;51.902;9.542;2023-03-01T06:48:15;10.10;;;8.80;;
462;SDS011;218;51.902;9.542;2023-03-01T06:50:42;11.25;;;9.52;;
462;SDS011;218;51.902;9.542;2023-03-01T06:53:09;10.93;;;9.23;;
462;SDS011;218;51.902;9.542;2023-03-01T06:55:36;16.45;;;10.38;;
462;SDS011;218;51.902;9.542;2023-03-01T06:58:04;16.63;;;11.40;;
462;SDS011;218;51.902;9.542;2023-03-01T07:00:31;19.90;;;12.43;;
462;SDS011;218;51.902;9.542;2023-03-01T07:02:59;17.17;;;11.40;;
462;SDS011;218;51.902;9.542;2023-03-01T07:05:27;19.83;;;12.80;;
462;SDS011;218;51.902;9.542;2023-03-01T07:07:54;17.40;;;13.07;;
462;SDS011;218;51.902;9.542;2023-03-01T07:10:21;15.90;;;12.20;;
462;SDS011;218;51.902;9.542;2023-03-01T07:12:48;18.33;;;12.65;;
462;SDS011;218;51.902;9.542;2023-03-01T07:15:17;13.95;;;11.52;;
462;SDS011;218;51.902;9.542;2023-03-01T07:17:44;17.75;;;13.02;;
462;SDS011;218;51.902;9.542;2023-03-01T07:20:12;25.30;;;17.85;;
462;SDS011;218;51.902;9.542;2023-03-01T07:22:40;33.92;;;23.05;;
462;SDS011;218;51.902;9.542;2023-03-01T07:25:08;33.13;;;23.50;;
462;SDS011;218;51.902;9.542;2023-03-01T07:27:35;33.70;;;24.20;;
462;SDS011;218;51.902;9.542;2023-03-01T07:30:03;33.33;;;22.77;;
462;SDS011;218;51.902;9.542;2023-03-01T07:32:32;30.52;;;22.52;;
462;SDS011;218;51.902;9.542;2023-03-01T07:34:59;34.38;;;21.05;;
462;SDS011;218;51.902;9.542;2023-03-01T07:37:26;28.15;;;21.30;;
462;SDS011;218;51.902;9.542;2023-03-01T07:39:53;28.83;;;20.60;;
462;SDS011;218;51.902;9.542;2023-03-01T07:42:19;24.35;;;17.83;;
462;SDS011;218;51.902;9.542;2023-03-01T07:44:46;28.15;;;20.15;;
462;SDS011;218;51.902;9.542;2023-03-01T07:47:13;27.80;;;19.05;;
462;SDS011;218;51.902;9.542;2023-03-01T07:49:41;25.70;;;18.85;;
462;SDS011;218;51.902;9.542;2023-03-01T07:52:09;30.80;;;19.77;;
462;SDS011;218;51.902;9.542;2023-03-01T07:54:37;26.48;;;18.23;;
462;SDS011;218;51.902;9.542;2023-03-01T07:57:03;19.27;;;15.98;;
462;SDS011;218;51.902;9.542;2023-03-01T07:59:30;23.48;;;17.15;;
462;SDS011;218;51.902;9.542;2023-03-01T08:01:58;22.42;;;15.30;;
462;SDS011;218;51.902;9.542;2023-03-01T08:04:25;23.38;;;15.20;;
462;SDS011;218;51.902;9.542;2023-03-01T08:06:53;17.48;;;13.82;;
462;SDS011;218;51.902;9.542;2023-03-01T08:09:21;19.30;;;14.60;;
462;SDS011;218;51.902;9.542;2023-03-01T08:11:48;23.58;;;14.80;;
462;SDS011;218;51.902;9.542;2023-03-01T08:14:15;16.23;;;13.57;;
462;SDS011;218;51.902;9.542;2023-03-01T08:16:42;15.07;;;12.30;;
462;SDS011;218;51.902;9.542;2023-03-01T08:19:10;15.63;;;12.50;;
462;SDS011;218;51.902;9.542;2023-03-01T08:21:38;15.27;;;12.23;;
462;SDS011;218;51.902;9.542;2023-03-01T08:24:07;15.32;;;13.43;;
462;SDS011;218;51.902;9.542;2023-03-01T08:26:35;17.73;;;13.85;;
462;SDS011;218;51.902;9.542;2023-03-01T08:29:03;19.17;;;13.65;;
462;SDS011;218;51.902;9.542;2023-03-01T08:31:31;19.00;;;12.70;;
462;SDS011;218;51.902;9.542;2023-03-01T08:34:01;18.45;;;13.65;;
462;SDS011;218;51.902;9.542;2023-03-01T08:36:30;16.80;;;12.50;;
462;SDS011;218;51.902;9.542;2023-03-01T08:38:59;18.23;;;14.60;;
462;SDS011;218;51.902;9.542;2023-03-01T08:41:27;11.30;;;10.02;;
462;SDS011;218;51.902;9.542;2023-03-01T08:43:55;9.93;;;8.50;;
462;SDS011;218;51.902;9.542;2023-03-01T08:46:24;10.50;;;8.10;;
462;SDS011;218;51.902;9.542;2023-03-01T08:48:52;9.57;;;7.95;;
462;SDS011;218;51.902;9.542;2023-03-01T08:51:19;9.43;;;7.78;;
462;SDS011;218;51.902;9.542;2023-03-01T08:53:46;8.57;;;7.65;;
462;SDS011;218;51.902;9.542;2023-03-01T08:56:14;9.35;;;7.88;;
462;SDS011;218;51.902;9.542;2023-03-01T08:58:45;9.70;;;8.73;;
462;SDS011;218;51.902;9.542;2023-03-01T09:01:13;9.10;;;7.38;;
462;SDS011;218;51.902;9.542;2023-03-01T09:03:42;11.20;;;10.05;;
462;SDS011;218;51.902;9.542;2023-03-01T09:06:09;11.40;;;8.63;;
462;SDS011;218;51.902;9.542;2023-03-01T09:08:38;9.05;;;7.75;;
462;SDS011;218;51.902;9.542;2023-03-01T09:11:06;10.23;;;8.55;;
462;SDS011;218;51.902;9.542;2023-03-01T09:13:35;8.65;;;7.75;;
462;SDS011;218;51.902;9.542;2023-03-01T09:16:04;9.07;;;8.25;;
462;SDS011;218;51.902;9.542;2023-03-01T09:18:33;12.57;;;7.53;;
462;SDS011;218;51.902;9.542;2023-03-01T09:21:01;8.73;;;7.88;;
462;SDS011;218;51.902;9.542;2023-03-01T09:23:33;9.60;;;7.22;;
462;SDS011;218;51.902;9.542;2023-03-01T09:26:04;7.70;;;7.00;;
462;SDS011;218;51.902;9.542;2023-03-01T09:28:31;11.30;;;8.45;;
462;SDS011;218;51.902;9.542;2023-03-01T09:30:58;8.73;;;7.82;;
462;SDS011;218;51.902;9.542;2023-03-01T09:33:26;9.05;;;7.43;;
462;SDS011;218;51.902;9.542;2023-03-01T09:35:58;6.78;;;6.18;;
462;SDS011;218;51.902;9.542;2023-03-01T09:38:25;7.82;;;6.05;;
462;SDS011;218;51.902;9.542;2023-03-01T09:40:52;11.35;;;8.65;;
462;SDS011;218;51.902;9.542;2023-03-01T09:43:21;10.82;;;7.55;;
462;SDS011;218;51.902;9.542;2023-03-01T09:45:52;8.90;;;7.00;;
462;SDS011;218;51.902;9.542;2023-03-01T09:48:22;10.00;;;6.65;;
462;SDS011;218;51.902;9.542;2023-03-01T09:50:54;13.15;;;6.63;;
462;SDS011;218;51.902;9.542;2023-03-01T09:53:21;8.32;;;7.18;;
462;SDS011;218;51.902;9.542;2023-03-01T09:55:53;7.60;;;6.90;;
462;SDS011;218;51.902;9.542;2023-03-01T09:58:28;8.25;;;7.35;;
462;SDS011;218;51.902;9.542;2023-03-01T10:01:02;12.55;;;8.30;;
462;SDS011;218;51.902;9.542;2023-03-01T10:03:39;9.10;;;6.93;;
462;SDS011;218;51.902;9.542;2023-03-01T10:06:11;6.97;;;6.28;;
462;SDS011;218;51.902;9.542;2023-03-01T10:08:42;6.80;;;5.90;;
462;SDS011;218;51.902;9.542;2023-03-01T10:11:17;9.98;;;5.82;;
462;SDS011;218;51.902;9.542;2023-03-01T10:13:46;6.43;;;5.78;;
462;SDS011;218;51.902;9.542;2023-03-01T10:16:20;6.20;;;5.60;;
462;SDS011;218;51.902;9.542;2023-03-01T10:18:50;6.30;;;5.72;;
462;SDS011;218;51.902;9.542;2023-03-01T10:21:20;7.07;;;5.00;;
462;SDS011;218;51.902;9.542;2023-03-01T10:23:49;7.70;;;6.00;;
462;SDS011;218;51.902;9.542;2023-03-01T10:29:14;6.53;;;5.82;;
462;SDS011;218;51.902;9.542;2023-03-01T10:31:42;5.63;;;5.03;;
462;SDS011;218;51.902;9.542;2023-03-01T10:34:11;6.60;;;5.32;;
462;SDS011;218;51.902;9.542;2023-03-01T10:36:43;6.82;;;6.07;;
462;SDS011;218;51.902;9.542;2023-03-01T10:39:11;7.05;;;6.07;;
462;SDS011;218;51.902;9.542;2023-03-01T10:41:40;6.68;;;5.55;;
462;SDS011;218;51.902;9.542;2023-03-01T10:44:11;7.70;;;6.78;;
462;SDS011;218;51.902;9.542;2023-03-01T10:47:03;6.88;;;6.28;;
462;SDS011;218;51.902;9.542;2023-03-01T10:49:30;7.38;;;6.68;;
462;SDS011;218;51.902;9.542;2023-03-01T10:51:59;10.10;;;8.45;;
462;SDS011;218;51.902;9.542;2023-03-01T10:54:37;7.97;;;7.22;;
462;SDS011;218;51.902;9.542;2023-03-01T10:57:10;6.95;;;5.90;;
462;SDS011;218;51.902;9.542;2023-03-01T11:00:00;7.03;;;6.43;;
462;SDS011;218;51.902;9.542;2023-03-01T11:02:29;8.98;;;6.25;;
462;SDS011;218;51.902;9.542;2023-03-01T11:04:58;6.97;;;6.38;;
462;SDS011;218;51.902;9.542;2023-03-01T11:07:27;7.82;;;6.28;;
462;SDS011;218;51.902;9.542;2023-03-01T11:09:55;6.57;;;5.97;;
462;SDS011;218;51.902;9.542;2023-03-01T11:12:22;7.77;;;6.50;;
462;SDS011;218;51.902;9.542;2023-03-01T11:14:50;6.75;;;6.15;;
462;SDS011;218;51.902;9.542;2023-03-01T11:17:20;7.68;;;6.95;;
462;SDS011;218;51.902;9.542;2023-03-01T11:20:00;5.95;;;5.35;;
462;SDS011;218;51.902;9.542;2023-03-01T11:22:31;6.88;;;6.00;;
462;SDS011;218;51.902;9.542;2023-03-01T11:24:59;5.95;;;5.28;;
462;SDS011;218;51.902;9.542;2023-03-01T11:27:28;6.40;;;5.70;;
462;SDS011;218;51.902;9.542;2023-03-01T11:29:59;6.90;;;6.20;;
462;SDS011;218;51.902;9.542;2023-03-01T11:32:41;7.90;;;6.23;;
462;SDS011;218;51.902;9.542;2023-03-01T11:35:13;7.43;;;5.55;;
462;SDS011;218;51.902;9.542;2023-03-01T11:37:47;6.50;;;5.90;;
462;SDS011;218;51.902;9.542;2023-03-01T11:40:21;5.90;;;5.30;;
462;SDS011;218;51.902;9.542;2023-03-01T11:42:53;7.22;;;6.53;;
462;SDS011;218;51.902;9.542;2023-03-01T11:45:23;7.05;;;6.45;;
462;SDS011;218;51.902;9.542;2023-03-01T11:47:56;5.57;;;5.07;;
462;SDS011;218;51.902;9.542;2023-03-01T11:50:26;7.07;;;6.43;;
462;SDS011;218;51.902;9.542;2023-03-01T11:53:00;9.57;;;8.67;;
462;SDS011;218;51.902;9.542;2023-03-01T11:55:36;29.75;;;16.25;;
462;SDS011;218;51.902;9.542;2023-03-01T11:58:22;12.90;;;10.80;;
462;SDS011;218;51.902;9.542;2023-03-01T12:01:02;8.90;;;8.00;;
462;SDS011;218;51.902;9.542;2023-03-01T12:03:41;7.07;;;6.47;;
462;SDS011;218;51.902;9.542;2023-03-01T12:09:09;6.50;;;5.80;;
462;SDS011;218;51.902;9.542;2023-03-01T12:11:53;7.07;;;6.37;;
462;SDS011;218;51.902;9.542;2023-03-01T12:17:17;6.53;;;6.00;;
462;SDS011;218;51.902;9.542;2023-03-01T12:20:01;6.53;;;5.90;;
462;SDS011;218;51.902;9.542;2023-03-01T12:22:32;8.77;;;7.28;;
462;SDS011;218;51.902;9.542;2023-03-01T12:25:12;7.17;;;5.90;;
462;SDS011;218;51.902;9.542;2023-03-01T12:27:47;7.17;;;6.57;;
462;SDS011;218;51.902;9.542;2023-03-01T12:30:22;10.47;;;7.33;;
462;SDS011;218;51.902;9.542;2023-03-01T12:32:55;9.30;;;7.70;;
462;SDS011;218;51.902;9.542;2023-03-01T12:35:32;7.07;;;6.47;;
462;SDS011;218;51.902;9.542;2023-03-01T12:38:06;6.83;;;6.13;;
462;SDS011;218;51.902;9.542;2023-03-01T12:40:49;7.07;;;6.47;;
462;SDS011;218;51.902;9.542;2023-03-01T12:43:22;7.50;;;6.80;;
462;SDS011;218;51.902;9.542;2023-03-01T12:45:55;8.00;;;7.27;;
462;SDS011;218;51.902;9.542;2023-03-01T12:48:30;7.27;;;6.67;;
462;SDS011;218;51.902;9.542;2023-03-01T12:51:01;8.10;;;7.30;;
462;SDS011;218;51.902;9.542;2023-03-01T12:53:29;7.40;;;6.30;;
462;SDS011;218;51.902;9.542;2023-03-01T12:56:00;7.10;;;6.47;;
462;SDS011;218;51.902;9.542;2023-03-01T12:58:28;7.67;;;6.97;;
462;SDS011;218;51.902;9.542;2023-03-01T13:01:08;7.60;;;6.90;;
462;SDS011;218;51.902;9.542;2023-03-01T13:03:48;8.10;;;7.30;;
462;SDS011;218;51.902;9.542;2023-03-01T13:06:21;7.43;;;6.73;;
462;SDS011;218;51.902;9.542;2023-03-01T13:08:54;6.13;;;5.63;;
462;SDS011;218;51.902;9.542;2023-03-01T13:11:24;6.60;;;6.10;;
462;SDS011;218;51.902;9.542;2023-03-01T13:13:51;7.33;;;6.63;;
462;SDS011;218;51.902;9.542;2023-03-01T13:16:20;7.23;;;6.57;;
462;SDS011;218;51.902;9.542;2023-03-01T13:18:47;7.43;;;6.73;;
462;SDS011;218;51.902;9.542;2023-03-01T13:21:15;7.60;;;7.00;;
462;SDS011;218;51.902;9.542;2023-03-01T13:23:55;7.97;;;7.27;;
462;SDS011;218;51.902;9.542;2023-03-01T13:26:22;7.67;;;6.07;;
462;SDS011;218;51.902;9.542;2023-03-01T13:28:52;5.90;;;5.27;;
462;SDS011;218;51.902;9.542;2023-03-01T13:37:13;7.20;;;6.60;;
462;SDS011;218;51.902;9.542;2023-03-01T13:39:54;6.50;;;6.00;;
462;SDS011;218;51.902;9.542;2023-03-01T13:42:33;6.97;;;6.30;;
462;SDS011;218;51.902;9.542;2023-03-01T13:45:05;8.27;;;5.60;;
462;SDS011;218;51.902;9.542;2023-03-01T13:47:54;6.10;;;5.60;;
462;SDS011;218;51.902;9.542;2023-03-01T13:50:24;5.50;;;5.00;;
462;SDS011;218;51.902;9.542;2023-03-01T13:52:54;7.37;;;5.90;;
462;SDS011;218;51.902;9.542;2023-03-01T13:55:25;5.53;;;5.03;;
462;SDS011;218;51.902;9.542;2023-03-01T13:57:53;5.30;;;4.57;;
462;SDS011;218;51.902;9.542;2023-03-01T14:00:28;6.20;;;5.17;;
462;SDS011;218;51.902;9.542;2023-03-01T14:03:02;5.67;;;5.07;;
462;SDS011;218;51.902;9.542;2023-03-01T14:05:30;5.73;;;5.33;;
462;SDS011;218;51.902;9.542;2023-03-01T14:07:57;5.63;;;5.13;;
462;SDS011;218;51.902;9.542;2023-03-01T14:10:25;6.13;;;5.57;;
462;SDS011;218;51.902;9.542;2023-03-01T14:12:55;5.30;;;5.00;;
462;SDS011;218;51.902;9.542;2023-03-01T14:15:31;6.13;;;5.63;;
462;SDS011;218;51.902;9.542;2023-03-01T14:18:01;5.13;;;4.73;;
462;SDS011;218;51.902;9.542;2023-03-01T14:20:31;5.97;;;5.20;;
462;SDS011;218;51.902;9.542;2023-03-01T14:23:01;6.97;;;6.40;;
462;SDS011;218;51.902;9.542;2023-03-01T14:25:29;5.77;;;5.30;;
462;SDS011;218;51.902;9.542;2023-03-01T14:27:58;6.20;;;5.53;;
462;SDS011;218;51.902;9.542;2023-03-01T14:30:26;6.07;;;5.57;;
462;SDS011;218;51.902;9.542;2023-03-01T14:32:57;6.70;;;6.13;;
462;SDS011;218;51.902;9.542;2023-03-01T14:35:25;5.97;;;5.47;;
462;SDS011;218;51.902;9.542;2023-03-01T14:37:53;5.57;;;5.07;;
462;SDS011;218;51.902;9.542;2023-03-01T14:40:21;5.97;;;5.47;;
462;SDS011;218;51.902;9.542;2023-03-01T14:42:49;5.37;;;4.87;;
462;SDS011;218;51.902;9.542;2023-03-01T14:45:16;4.87;;;4.47;;
462;SDS011;218;51.902;9.542;2023-03-01T14:47:45;4.90;;;4.53;;
462;SDS011;218;51.902;9.542;2023-03-01T14:50:18;5.13;;;4.60;;
462;SDS011;218;51.902;9.542;2023-03-01T14:52:47;5.60;;;5.10;;
462;SDS011;218;51.902;9.542;2023-03-01T14:55:17;4.97;;;4.57;;
462;SDS011;218;51.902;9.542;2023-03-01T14:57:46;5.03;;;4.63;;
462;SDS011;218;51.902;9.542;2023-03-01T15:00:16;6.00;;;4.90;;
462;SDS011;218;51.902;9.542;2023-03-01T15:02:46;5.37;;;4.97;;
462;SDS011;218;51.902;9.542;2023-03-01T15:05:25;5.23;;;4.03;;
462;SDS011;218;51.902;9.542;2023-03-01T15:07:52;7.00;;;4.77;;
462;SDS011;218;51.902;9.542;2023-03-01T15:10:20;5.70;;;5.20;;
462;SDS011;218;51.902;9.542;2023-03-01T15:12:49;5.33;;;4.90;;
462;SDS011;218;51.902;9.542;2023-03-01T15:18:04;5.80;;;5.30;;
462;SDS011;218;51.902;9.542;2023-03-01T15:20:40;5.63;;;5.00;;
462;SDS011;218;51.902;9.542;2023-03-01T15:23:13;5.83;;;5.30;;
462;SDS011;218;51.902;9.542;2023-03-01T15:25:44;5.07;;;4.67;;
462;SDS011;218;51.902;9.542;2023-03-01T15:28:12;5.73;;;4.63;;
462;SDS011;218;51.902;9.542;2023-03-01T15:30:46;4.53;;;4.23;;
462;SDS011;218;51.902;9.542;2023-03-01T15:33:29;4.87;;;4.47;;
462;SDS011;218;51.902;9.542;2023-03-01T15:35:59;5.20;;;4.80;;
462;SDS011;218;51.902;9.542;2023-03-01T15:38:28;4.73;;;4.33;;
462;SDS011;218;51.902;9.542;2023-03-01T15:40:55;8.33;;;7.53;;
462;SDS011;218;51.902;9.542;2023-03-01T15:43:41;6.87;;;6.10;;
462;SDS011;218;51.902;9.542;2023-03-01T15:46:22;7.90;;;6.23;;
462;SDS011;218;51.902;9.542;2023-03-01T15:48:52;6.20;;;5.60;;
462;SDS011;218;51.902;9.542;2023-03-01T15:51:27;6.87;;;5.83;;
462;SDS011;218;51.902;9.542;2023-03-01T15:53:55;6.90;;;6.17;;
462;SDS011;218;51.902;9.542;2023-03-01T15:56:22;6.97;;;6.43;;
462;SDS011;218;51.902;9.542;2023-03-01T15:58:50;8.17;;;7.57;;
462;SDS011;218;51.902;9.542;2023-03-01T16:01:17;14.43;;;13.13;;
462;SDS011;218;51.902;9.542;2023-03-01T16:03:44;10.10;;;9.40;;
462;SDS011;218;51.902;9.542;2023-03-01T16:06:12;7.25;;;6.65;;